Airfield :
LOGIN :

Register | Disclaimer

   EN    FR    IT 

 










Legend :    VFR   Marginal VFR   IFR   Intensive IFR   Very Intensive IFR
Visi :
Ceiling :
>= 8 km
>= 3000ft
5 to 8 km
1000 to 3000 ft
1500m to 5 km
500 to 1000 ft
800 to 1500m
200 to 500 ft
< 800m
< 200 ft
Symbols :   Thunderstorms  Fog  Heavy snow  Heavy precipitations  Wind > 20 kt
SIGMETs :     Misc.  Thunderstorms  Icing  Turbulence  Mountain Waves  Volcanic Ashes






- Airport Elevation : 325 ft
- IATA code : POX


LFPT - Pontoise

CURRENT METAR :
  • 222200Z AUTO 23007KT 9999 FEW034 BKN044 OVC058 05/03 Q0998

EXPIRED METARs :
  • 222130Z AUTO 23008KT CAVOK 05/03 Q0998
  • 222100Z AUTO 23007KT 9999 FEW041 SCT052 05/02 Q0998
  • 222030Z AUTO 23005KT 9999 FEW043 SCT060 BKN190 04/02 Q0998
  • 222000Z AUTO 24007KT CAVOK 04/02 Q0998
  • 221930Z AUTO 23005KT CAVOK 04/01 Q0998

TAF N/A
ATIS : +33 1 30 30 52 08



MET'MAP, your aeronautical weather chart ! - Copyright ORBIFLY December 2007 - Disclaimer

ORBIFLY MET'MAP TEAM :

Programming & Development : Alexandra Zaïnal
Concept & original design : Baudouin d'Aumeries
Assistance for programming : Marc-Olivier Méhu
Technical & hardware support : Manuel Goepfert

Contact : metmap@orbifly.com




SOURCES & CREDITS :

   NOAA